sensor_id;sensor_type;location;lat;lon;timestamp;temperature;humidity
80367;DHT22;70058;42.660;23.366;2023-07-16T00:00:29;26.00;53.40
80367;DHT22;70058;42.660;23.366;2023-07-16T00:02:54;26.00;53.00
80367;DHT22;70058;42.660;23.366;2023-07-16T00:05:21;26.10;52.80
80367;DHT22;70058;42.660;23.366;2023-07-16T00:07:46;26.10;52.80
80367;DHT22;70058;42.660;23.366;2023-07-16T00:10:12;25.70;53.80
80367;DHT22;70058;42.660;23.366;2023-07-16T00:12:38;25.90;53.50
80367;DHT22;70058;42.660;23.366;2023-07-16T00:15:04;25.90;53.40
80367;DHT22;70058;42.660;23.366;2023-07-16T00:17:32;25.90;53.00
80367;DHT22;70058;42.660;23.366;2023-07-16T00:19:58;25.60;54.00
80367;DHT22;70058;42.660;23.366;2023-07-16T00:22:23;25.50;54.50
80367;DHT22;70058;42.660;23.366;2023-07-16T00:24:49;25.50;54.50
80367;DHT22;70058;42.660;23.366;2023-07-16T00:27:15;25.30;54.90
80367;DHT22;70058;42.660;23.366;2023-07-16T00:29:40;25.30;54.50
80367;DHT22;70058;42.660;23.366;2023-07-16T00:32:06;25.40;54.40
80367;DHT22;70058;42.660;23.366;2023-07-16T00:34:32;25.40;54.00
80367;DHT22;70058;42.660;23.366;2023-07-16T00:36:57;25.30;54.60
80367;DHT22;70058;42.660;23.366;2023-07-16T00:39:28;25.30;54.70
80367;DHT22;70058;42.660;23.366;2023-07-16T00:41:54;25.40;54.20
80367;DHT22;70058;42.660;23.366;2023-07-16T00:44:19;25.40;54.00
80367;DHT22;70058;42.660;23.366;2023-07-16T00:46:45;25.40;54.50
80367;DHT22;70058;42.660;23.366;2023-07-16T00:49:11;25.60;54.00
80367;DHT22;70058;42.660;23.366;2023-07-16T00:51:37;25.60;53.50
80367;DHT22;70058;42.660;23.366;2023-07-16T00:54:03;25.60;53.60
80367;DHT22;70058;42.660;23.366;2023-07-16T00:56:29;25.50;54.20
80367;DHT22;70058;42.660;23.366;2023-07-16T00:58:55;25.40;54.50
80367;DHT22;70058;42.660;23.366;2023-07-16T01:01:20;25.30;54.20
80367;DHT22;70058;42.660;23.366;2023-07-16T01:03:46;25.10;55.40
80367;DHT22;70058;42.660;23.366;2023-07-16T01:06:22;25.10;55.30
80367;DHT22;70058;42.660;23.366;2023-07-16T01:09:15;25.10;55.30
80367;DHT22;70058;42.660;23.366;2023-07-16T01:11:42;25.30;54.80
80367;DHT22;70058;42.660;23.366;2023-07-16T01:14:08;25.20;54.70
80367;DHT22;70058;42.660;23.366;2023-07-16T01:16:35;25.20;54.50
80367;DHT22;70058;42.660;23.366;2023-07-16T01:19:01;25.40;54.50
80367;DHT22;70058;42.660;23.366;2023-07-16T01:21:34;25.50;53.90
80367;DHT22;70058;42.660;23.366;2023-07-16T01:24:27;25.20;54.30
80367;DHT22;70058;42.660;23.366;2023-07-16T01:29:42;25.30;54.50
80367;DHT22;70058;42.660;23.366;2023-07-16T01:32:09;25.50;54.20
80367;DHT22;70058;42.660;23.366;2023-07-16T01:34:38;25.40;53.90
80367;DHT22;70058;42.660;23.366;2023-07-16T01:37:04;25.30;54.10
80367;DHT22;70058;42.660;23.366;2023-07-16T01:39:31;25.40;53.90
80367;DHT22;70058;42.660;23.366;2023-07-16T01:42:00;25.50;53.80
80367;DHT22;70058;42.660;23.366;2023-07-16T01:44:25;25.50;53.90
80367;DHT22;70058;42.660;23.366;2023-07-16T01:47:32;25.50;53.30
80367;DHT22;70058;42.660;23.366;2023-07-16T01:50:00;25.50;53.70
80367;DHT22;70058;42.660;23.366;2023-07-16T01:52:26;25.50;53.70
80367;DHT22;70058;42.660;23.366;2023-07-16T01:54:52;25.50;53.90
80367;DHT22;70058;42.660;23.366;2023-07-16T01:57:17;25.50;53.70
80367;DHT22;70058;42.660;23.366;2023-07-16T01:59:43;25.50;53.50
80367;DHT22;70058;42.660;23.366;2023-07-16T02:02:08;25.60;53.30
80367;DHT22;70058;42.660;23.366;2023-07-16T02:04:34;25.60;53.30
80367;DHT22;70058;42.660;23.366;2023-07-16T02:07:00;25.30;53.70
80367;DHT22;70058;42.660;23.366;2023-07-16T02:09:25;25.00;54.30
80367;DHT22;70058;42.660;23.366;2023-07-16T02:11:51;24.90;55.20
80367;DHT22;70058;42.660;23.366;2023-07-16T02:14:17;24.90;54.80
80367;DHT22;70058;42.660;23.366;2023-07-16T02:16:43;24.80;54.90
80367;DHT22;70058;42.660;23.366;2023-07-16T02:19:08;24.50;55.90
80367;DHT22;70058;42.660;23.366;2023-07-16T02:21:34;24.60;56.00
80367;DHT22;70058;42.660;23.366;2023-07-16T02:24:00;24.80;55.50
80367;DHT22;70058;42.660;23.366;2023-07-16T02:26:25;24.70;55.50
80367;DHT22;70058;42.660;23.366;2023-07-16T02:28:51;24.60;55.70
80367;DHT22;70058;42.660;23.366;2023-07-16T02:31:17;24.70;55.40
80367;DHT22;70058;42.660;23.366;2023-07-16T02:33:42;24.90;55.00
80367;DHT22;70058;42.660;23.366;2023-07-16T02:36:08;24.70;55.10
80367;DHT22;70058;42.660;23.366;2023-07-16T02:38:34;24.20;56.60
80367;DHT22;70058;42.660;23.366;2023-07-16T02:41:00;24.00;57.40
80367;DHT22;70058;42.660;23.366;2023-07-16T02:43:25;24.10;57.50
80367;DHT22;70058;42.660;23.366;2023-07-16T02:45:51;24.30;56.70
80367;DHT22;70058;42.660;23.366;2023-07-16T02:48:17;23.90;58.00
80367;DHT22;70058;42.660;23.366;2023-07-16T02:50:42;23.90;58.00
80367;DHT22;70058;42.660;23.366;2023-07-16T02:53:08;24.10;58.40
80367;DHT22;70058;42.660;23.366;2023-07-16T02:55:37;24.00;57.40
80367;DHT22;70058;42.660;23.366;2023-07-16T02:58:03;24.00;57.80
80367;DHT22;70058;42.660;23.366;2023-07-16T03:00:30;23.80;58.20
80367;DHT22;70058;42.660;23.366;2023-07-16T03:02:57;23.70;58.90
80367;DHT22;70058;42.660;23.366;2023-07-16T03:05:24;23.80;58.70
80367;DHT22;70058;42.660;23.366;2023-07-16T03:07:50;23.90;58.50
80367;DHT22;70058;42.660;23.366;2023-07-16T03:10:15;23.90;58.10
80367;DHT22;70058;42.660;23.366;2023-07-16T03:12:41;24.10;57.60
80367;DHT22;70058;42.660;23.366;2023-07-16T03:15:07;24.10;57.60
80367;DHT22;70058;42.660;23.366;2023-07-16T03:17:33;24.20;57.20
80367;DHT22;70058;42.660;23.366;2023-07-16T03:19:59;24.40;57.00
80367;DHT22;70058;42.660;23.366;2023-07-16T03:22:24;24.50;57.00
80367;DHT22;70058;42.660;23.366;2023-07-16T03:24:50;24.60;56.60
80367;DHT22;70058;42.660;23.366;2023-07-16T03:27:16;24.70;56.30
80367;DHT22;70058;42.660;23.366;2023-07-16T03:29:42;24.50;56.00
80367;DHT22;70058;42.660;23.366;2023-07-16T03:32:08;24.70;56.20
80367;DHT22;70058;42.660;23.366;2023-07-16T03:34:33;24.70;55.70
80367;DHT22;70058;42.660;23.366;2023-07-16T03:36:59;24.80;55.60
80367;DHT22;70058;42.660;23.366;2023-07-16T03:39:25;24.80;55.20
80367;DHT22;70058;42.660;23.366;2023-07-16T03:41:51;24.60;55.70
80367;DHT22;70058;42.660;23.366;2023-07-16T03:44:16;24.40;56.50
80367;DHT22;70058;42.660;23.366;2023-07-16T03:46:42;24.60;55.90
80367;DHT22;70058;42.660;23.366;2023-07-16T03:49:08;24.80;55.40
80367;DHT22;70058;42.660;23.366;2023-07-16T03:51:34;24.80;54.90
80367;DHT22;70058;42.660;23.366;2023-07-16T03:54:00;24.80;56.00
80367;DHT22;70058;42.660;23.366;2023-07-16T03:56:25;24.80;54.80
80367;DHT22;70058;42.660;23.366;2023-07-16T03:58:51;25.00;54.70
80367;DHT22;70058;42.660;23.366;2023-07-16T04:01:17;25.00;54.20
80367;DHT22;70058;42.660;23.366;2023-07-16T04:03:42;25.10;54.30
80367;DHT22;70058;42.660;23.366;2023-07-16T04:06:09;25.20;54.00
80367;DHT22;70058;42.660;23.366;2023-07-16T04:08:36;25.30;53.60
80367;DHT22;70058;42.660;23.366;2023-07-16T04:11:03;25.30;53.10
80367;DHT22;70058;42.660;23.366;2023-07-16T04:13:30;25.30;53.60
80367;DHT22;70058;42.660;23.366;2023-07-16T04:15:56;25.40;53.50
80367;DHT22;70058;42.660;23.366;2023-07-16T04:18:26;25.60;52.80
80367;DHT22;70058;42.660;23.366;2023-07-16T04:20:52;25.70;53.00
80367;DHT22;70058;42.660;23.366;2023-07-16T04:23:18;26.40;51.50
80367;DHT22;70058;42.660;23.366;2023-07-16T04:25:44;27.60;49.30
80367;DHT22;70058;42.660;23.366;2023-07-16T04:28:10;29.10;45.70
80367;DHT22;70058;42.660;23.366;2023-07-16T04:30:36;30.30;42.60
80367;DHT22;70058;42.660;23.366;2023-07-16T04:33:05;31.00;40.30
80367;DHT22;70058;42.660;23.366;2023-07-16T04:35:32;31.50;39.60
80367;DHT22;70058;42.660;23.366;2023-07-16T04:37:58;32.40;38.00
80367;DHT22;70058;42.660;23.366;2023-07-16T04:40:23;33.30;36.60
80367;DHT22;70058;42.660;23.366;2023-07-16T04:42:49;34.00;35.00
80367;DHT22;70058;42.660;23.366;2023-07-16T04:45:14;34.30;34.40
80367;DHT22;70058;42.660;23.366;2023-07-16T04:47:40;33.90;34.70
80367;DHT22;70058;42.660;23.366;2023-07-16T04:50:06;33.20;35.50
80367;DHT22;70058;42.660;23.366;2023-07-16T04:52:32;32.50;36.80
80367;DHT22;70058;42.660;23.366;2023-07-16T04:54:57;31.80;37.60
80367;DHT22;70058;42.660;23.366;2023-07-16T04:57:23;31.20;38.20
80367;DHT22;70058;42.660;23.366;2023-07-16T04:59:49;30.60;39.80
80367;DHT22;70058;42.660;23.366;2023-07-16T05:02:14;30.30;40.50
80367;DHT22;70058;42.660;23.366;2023-07-16T05:04:42;30.00;41.20
80367;DHT22;70058;42.660;23.366;2023-07-16T05:07:09;29.80;41.30
80367;DHT22;70058;42.660;23.366;2023-07-16T05:09:35;29.70;41.90
80367;DHT22;70058;42.660;23.366;2023-07-16T05:12:01;29.40;42.40
80367;DHT22;70058;42.660;23.366;2023-07-16T05:14:28;29.40;42.70
80367;DHT22;70058;42.660;23.366;2023-07-16T05:16:55;29.50;42.60
80367;DHT22;70058;42.660;23.366;2023-07-16T05:19:20;29.50;42.40
80367;DHT22;70058;42.660;23.366;2023-07-16T05:21:46;29.40;42.50
80367;DHT22;70058;42.660;23.366;2023-07-16T05:24:12;29.30;42.80
80367;DHT22;70058;42.660;23.366;2023-07-16T05:26:38;29.20;43.00
80367;DHT22;70058;42.660;23.366;2023-07-16T05:29:04;29.20;43.10
80367;DHT22;70058;42.660;23.366;2023-07-16T05:31:30;29.00;43.30
80367;DHT22;70058;42.660;23.366;2023-07-16T05:33:55;29.10;43.50
80367;DHT22;70058;42.660;23.366;2023-07-16T05:36:21;29.10;44.00
80367;DHT22;70058;42.660;23.366;2023-07-16T05:38:47;29.10;43.60
80367;DHT22;70058;42.660;23.366;2023-07-16T05:41:12;29.20;43.40
80367;DHT22;70058;42.660;23.366;2023-07-16T05:43:38;29.40;43.30
80367;DHT22;70058;42.660;23.366;2023-07-16T05:46:03;29.40;42.80
80367;DHT22;70058;42.660;23.366;2023-07-16T05:48:31;29.60;42.10
80367;DHT22;70058;42.660;23.366;2023-07-16T05:50:57;29.90;41.50
80367;DHT22;70058;42.660;23.366;2023-07-16T05:53:23;31.60;39.10
80367;DHT22;70058;42.660;23.366;2023-07-16T05:55:48;34.10;34.90
80367;DHT22;70058;42.660;23.366;2023-07-16T05:58:15;36.50;31.50
80367;DHT22;70058;42.660;23.366;2023-07-16T06:00:41;38.60;29.20
80367;DHT22;70058;42.660;23.366;2023-07-16T06:03:07;39.10;27.80
80367;DHT22;70058;42.660;23.366;2023-07-16T06:05:33;40.40;26.80
80367;DHT22;70058;42.660;23.366;2023-07-16T06:08:00;41.60;25.60
80367;DHT22;70058;42.660;23.366;2023-07-16T06:10:26;42.70;24.70
80367;DHT22;70058;42.660;23.366;2023-07-16T06:12:51;43.30;23.90
80367;DHT22;70058;42.660;23.366;2023-07-16T06:15:17;44.00;23.30
80367;DHT22;70058;42.660;23.366;2023-07-16T06:17:43;44.70;22.90
80367;DHT22;70058;42.660;23.366;2023-07-16T06:20:09;44.80;22.30
80367;DHT22;70058;42.660;23.366;2023-07-16T06:22:34;45.20;22.10
80367;DHT22;70058;42.660;23.366;2023-07-16T06:25:00;46.00;21.80
80367;DHT22;70058;42.660;23.366;2023-07-16T06:27:26;46.60;21.20
80367;DHT22;70058;42.660;23.366;2023-07-16T06:29:52;47.10;20.70
80367;DHT22;70058;42.660;23.366;2023-07-16T06:32:17;46.90;20.80
80367;DHT22;70058;42.660;23.366;2023-07-16T06:34:43;47.60;20.50
80367;DHT22;70058;42.660;23.366;2023-07-16T06:37:09;47.50;20.40
80367;DHT22;70058;42.660;23.366;2023-07-16T06:39:34;48.10;20.10
80367;DHT22;70058;42.660;23.366;2023-07-16T06:42:00;47.20;20.10
80367;DHT22;70058;42.660;23.366;2023-07-16T06:44:26;47.70;20.00
80367;DHT22;70058;42.660;23.366;2023-07-16T06:46:52;48.20;19.80
80367;DHT22;70058;42.660;23.366;2023-07-16T06:49:18;47.70;20.00
80367;DHT22;70058;42.660;23.366;2023-07-16T06:51:44;48.20;20.30
80367;DHT22;70058;42.660;23.366;2023-07-16T06:54:10;48.80;19.10
80367;DHT22;70058;42.660;23.366;2023-07-16T06:56:35;48.80;18.80
80367;DHT22;70058;42.660;23.366;2023-07-16T06:59:01;48.40;19.20
80367;DHT22;70058;42.660;23.366;2023-07-16T07:01:26;46.50;20.30
80367;DHT22;70058;42.660;23.366;2023-07-16T07:03:53;47.90;19.60
80367;DHT22;70058;42.660;23.366;2023-07-16T07:06:19;47.20;19.30
80367;DHT22;70058;42.660;23.366;2023-07-16T07:08:46;45.00;20.40
80367;DHT22;70058;42.660;23.366;2023-07-16T07:11:12;44.60;21.70
80367;DHT22;70058;42.660;23.366;2023-07-16T07:13:38;46.60;20.30
80367;DHT22;70058;42.660;23.366;2023-07-16T07:16:04;47.60;19.70
80367;DHT22;70058;42.660;23.366;2023-07-16T07:18:29;49.00;18.90
80367;DHT22;70058;42.660;23.366;2023-07-16T07:20:55;49.60;18.00
80367;DHT22;70058;42.660;23.366;2023-07-16T07:23:21;49.80;18.10
80367;DHT22;70058;42.660;23.366;2023-07-16T07:25:50;50.80;17.60
80367;DHT22;70058;42.660;23.366;2023-07-16T07:28:19;51.50;17.30
80367;DHT22;70058;42.660;23.366;2023-07-16T07:30:46;52.40;16.80
80367;DHT22;70058;42.660;23.366;2023-07-16T07:33:12;52.70;16.50
80367;DHT22;70058;42.660;23.366;2023-07-16T07:35:38;53.40;16.10
80367;DHT22;70058;42.660;23.366;2023-07-16T07:38:03;53.80;15.80
80367;DHT22;70058;42.660;23.366;2023-07-16T07:40:29;53.90;15.70
80367;DHT22;70058;42.660;23.366;2023-07-16T07:42:55;54.40;15.70
80367;DHT22;70058;42.660;23.366;2023-07-16T07:45:20;53.80;15.40
80367;DHT22;70058;42.660;23.366;2023-07-16T07:47:46;54.20;15.30
80367;DHT22;70058;42.660;23.366;2023-07-16T07:50:12;54.10;15.50
80367;DHT22;70058;42.660;23.366;2023-07-16T07:52:37;54.70;15.40
80367;DHT22;70058;42.660;23.366;2023-07-16T07:55:03;53.50;15.20
80367;DHT22;70058;42.660;23.366;2023-07-16T07:57:29;52.70;15.90
80367;DHT22;70058;42.660;23.366;2023-07-16T07:59:55;53.50;15.70
80367;DHT22;70058;42.660;23.366;2023-07-16T08:02:26;54.00;15.40
80367;DHT22;70058;42.660;23.366;2023-07-16T08:04:53;54.40;15.30
80367;DHT22;70058;42.660;23.366;2023-07-16T08:07:19;55.00;14.90
80367;DHT22;70058;42.660;23.366;2023-07-16T08:09:45;55.10;14.80
80367;DHT22;70058;42.660;23.366;2023-07-16T08:12:11;55.40;14.40
80367;DHT22;70058;42.660;23.366;2023-07-16T08:14:37;54.00;15.40
80367;DHT22;70058;42.660;23.366;2023-07-16T08:17:02;54.90;14.90
80367;DHT22;70058;42.660;23.366;2023-07-16T08:19:28;55.60;14.70
80367;DHT22;70058;42.660;23.366;2023-07-16T08:21:54;56.00;14.50
80367;DHT22;70058;42.660;23.366;2023-07-16T08:24:19;56.30;14.20
80367;DHT22;70058;42.660;23.366;2023-07-16T08:26:45;56.60;14.90
80367;DHT22;70058;42.660;23.366;2023-07-16T08:29:11;54.60;14.60
80367;DHT22;70058;42.660;23.366;2023-07-16T08:31:36;54.90;14.60
80367;DHT22;70058;42.660;23.366;2023-07-16T08:34:02;55.40;14.70
80367;DHT22;70058;42.660;23.366;2023-07-16T08:36:28;56.00;14.50
80367;DHT22;70058;42.660;23.366;2023-07-16T08:38:53;56.60;14.10
80367;DHT22;70058;42.660;23.366;2023-07-16T08:41:19;56.70;13.80
80367;DHT22;70058;42.660;23.366;2023-07-16T08:43:49;53.90;15.00
80367;DHT22;70058;42.660;23.366;2023-07-16T08:46:15;54.10;15.00
80367;DHT22;70058;42.660;23.366;2023-07-16T08:48:41;55.10;14.70
80367;DHT22;70058;42.660;23.366;2023-07-16T08:51:09;54.80;14.70
80367;DHT22;70058;42.660;23.366;2023-07-16T08:53:35;54.40;14.90
80367;DHT22;70058;42.660;23.366;2023-07-16T08:56:01;54.30;15.00
80367;DHT22;70058;42.660;23.366;2023-07-16T08:58:30;55.70;14.50
80367;DHT22;70058;42.660;23.366;2023-07-16T09:00:56;56.70;13.90
80367;DHT22;70058;42.660;23.366;2023-07-16T09:03:22;57.50;14.30
80367;DHT22;70058;42.660;23.366;2023-07-16T09:05:48;58.00;13.40
80367;DHT22;70058;42.660;23.366;2023-07-16T09:08:14;58.00;13.00
80367;DHT22;70058;42.660;23.366;2023-07-16T09:10:41;58.50;13.00
80367;DHT22;70058;42.660;23.366;2023-07-16T09:13:07;58.90;12.80
80367;DHT22;70058;42.660;23.366;2023-07-16T09:15:33;59.10;12.70
80367;DHT22;70058;42.660;23.366;2023-07-16T09:18:03;59.70;12.50
80367;DHT22;70058;42.660;23.366;2023-07-16T09:20:29;58.60;12.30
80367;DHT22;70058;42.660;23.366;2023-07-16T09:22:57;58.80;12.50
80367;DHT22;70058;42.660;23.366;2023-07-16T09:25:40;59.30;12.60
80367;DHT22;70058;42.660;23.366;2023-07-16T09:28:07;59.70;12.20
80367;DHT22;70058;42.660;23.366;2023-07-16T09:30:34;59.60;12.00
80367;DHT22;70058;42.660;23.366;2023-07-16T09:33:15;59.30;12.30
80367;DHT22;70058;42.660;23.366;2023-07-16T09:35:42;60.00;12.20
80367;DHT22;70058;42.660;23.366;2023-07-16T09:38:08;60.40;11.80
80367;DHT22;70058;42.660;23.366;2023-07-16T09:40:38;60.60;11.80
80367;DHT22;70058;42.660;23.366;2023-07-16T09:43:05;60.10;11.90
80367;DHT22;70058;42.660;23.366;2023-07-16T09:45:31;59.90;12.50
80367;DHT22;70058;42.660;23.366;2023-07-16T09:47:57;60.10;11.60
80367;DHT22;70058;42.660;23.366;2023-07-16T09:50:31;59.30;11.80
80367;DHT22;70058;42.660;23.366;2023-07-16T09:52:58;60.30;11.80
80367;DHT22;70058;42.660;23.366;2023-07-16T09:55:24;60.40;11.50
80367;DHT22;70058;42.660;23.366;2023-07-16T09:57:52;61.10;11.40
80367;DHT22;70058;42.660;23.366;2023-07-16T10:00:19;61.90;11.20
80367;DHT22;70058;42.660;23.366;2023-07-16T10:02:50;62.60;10.80
80367;DHT22;70058;42.660;23.366;2023-07-16T10:05:17;62.50;10.70
80367;DHT22;70058;42.660;23.366;2023-07-16T10:07:50;61.60;11.00
80367;DHT22;70058;42.660;23.366;2023-07-16T10:10:16;62.40;11.00
80367;DHT22;70058;42.660;23.366;2023-07-16T10:12:53;60.70;12.10
80367;DHT22;70058;42.660;23.366;2023-07-16T10:15:25;61.10;11.30
80367;DHT22;70058;42.660;23.366;2023-07-16T10:17:52;61.60;11.20
80367;DHT22;70058;42.660;23.366;2023-07-16T10:20:29;59.10;11.70
80367;DHT22;70058;42.660;23.366;2023-07-16T10:22:54;58.80;12.10
80367;DHT22;70058;42.660;23.366;2023-07-16T10:27:47;56.20;13.40
80367;DHT22;70058;42.660;23.366;2023-07-16T10:30:13;54.20;14.30
80367;DHT22;70058;42.660;23.366;2023-07-16T10:32:39;54.40;14.50
80367;DHT22;70058;42.660;23.366;2023-07-16T10:35:06;54.00;14.80
80367;DHT22;70058;42.660;23.366;2023-07-16T10:37:34;50.60;16.30
80367;DHT22;70058;42.660;23.366;2023-07-16T10:40:00;47.80;17.80
80367;DHT22;70058;42.660;23.366;2023-07-16T10:42:27;45.30;20.20
80367;DHT22;70058;42.660;23.366;2023-07-16T10:44:56;44.40;21.40
80367;DHT22;70058;42.660;23.366;2023-07-16T10:47:33;43.50;21.80
80367;DHT22;70058;42.660;23.366;2023-07-16T10:50:00;42.70;22.90
80367;DHT22;70058;42.660;23.366;2023-07-16T10:52:26;42.00;22.90
80367;DHT22;70058;42.660;23.366;2023-07-16T10:54:52;39.70;24.40
80367;DHT22;70058;42.660;23.366;2023-07-16T10:57:21;38.50;25.90
80367;DHT22;70058;42.660;23.366;2023-07-16T10:59:47;37.20;27.00
80367;DHT22;70058;42.660;23.366;2023-07-16T11:02:15;36.70;27.80
80367;DHT22;70058;42.660;23.366;2023-07-16T11:04:42;36.80;28.00
80367;DHT22;70058;42.660;23.366;2023-07-16T11:07:10;37.30;27.80
80367;DHT22;70058;42.660;23.366;2023-07-16T11:12:13;37.70;27.50
80367;DHT22;70058;42.660;23.366;2023-07-16T11:14:46;37.80;27.60
80367;DHT22;70058;42.660;23.366;2023-07-16T11:17:12;37.90;27.40
80367;DHT22;70058;42.660;23.366;2023-07-16T11:19:39;37.90;26.90
80367;DHT22;70058;42.660;23.366;2023-07-16T11:22:06;37.40;27.20
80367;DHT22;70058;42.660;23.366;2023-07-16T11:24:44;37.10;27.70
80367;DHT22;70058;42.660;23.366;2023-07-16T11:29:48;37.10;27.60
80367;DHT22;70058;42.660;23.366;2023-07-16T11:32:34;36.80;27.10
80367;DHT22;70058;42.660;23.366;2023-07-16T11:35:03;37.00;27.30
80367;DHT22;70058;42.660;23.366;2023-07-16T11:37:31;36.90;27.50
80367;DHT22;70058;42.660;23.366;2023-07-16T11:40:08;36.90;27.60
80367;DHT22;70058;42.660;23.366;2023-07-16T11:42:36;36.90;27.10
80367;DHT22;70058;42.660;23.366;2023-07-16T11:45:03;36.90;27.40
80367;DHT22;70058;42.660;23.366;2023-07-16T11:47:29;37.10;27.70
80367;DHT22;70058;42.660;23.366;2023-07-16T11:49:56;37.10;27.50
80367;DHT22;70058;42.660;23.366;2023-07-16T11:52:27;36.90;27.60
80367;DHT22;70058;42.660;23.366;2023-07-16T11:54:57;36.90;27.80
80367;DHT22;70058;42.660;23.366;2023-07-16T11:57:25;36.40;27.90
80367;DHT22;70058;42.660;23.366;2023-07-16T11:59:51;36.50;28.20
80367;DHT22;70058;42.660;23.366;2023-07-16T12:02:17;36.60;27.80
80367;DHT22;70058;42.660;23.366;2023-07-16T12:04:42;36.80;27.80
80367;DHT22;70058;42.660;23.366;2023-07-16T12:07:08;36.90;27.50
80367;DHT22;70058;42.660;23.366;2023-07-16T12:09:34;37.00;26.90
80367;DHT22;70058;42.660;23.366;2023-07-16T12:12:00;36.90;26.50
80367;DHT22;70058;42.660;23.366;2023-07-16T12:14:26;36.90;26.70
80367;DHT22;70058;42.660;23.366;2023-07-16T12:16:52;36.90;26.60
80367;DHT22;70058;42.660;23.366;2023-07-16T12:19:17;37.00;26.80
80367;DHT22;70058;42.660;23.366;2023-07-16T12:21:43;37.00;27.00
80367;DHT22;70058;42.660;23.366;2023-07-16T12:24:09;37.10;27.80
80367;DHT22;70058;42.660;23.366;2023-07-16T12:26:35;36.90;27.20
80367;DHT22;70058;42.660;23.366;2023-07-16T12:29:01;36.50;27.40
80367;DHT22;70058;42.660;23.366;2023-07-16T12:31:30;36.70;27.50
80367;DHT22;70058;42.660;23.366;2023-07-16T12:33:57;36.80;27.40
80367;DHT22;70058;42.660;23.366;2023-07-16T12:36:23;36.90;26.90
80367;DHT22;70058;42.660;23.366;2023-07-16T12:38:49;36.90;26.90
80367;DHT22;70058;42.660;23.366;2023-07-16T12:41:15;36.40;26.70
80367;DHT22;70058;42.660;23.366;2023-07-16T12:43:41;36.30;27.60
80367;DHT22;70058;42.660;23.366;2023-07-16T12:46:07;36.20;27.50
80367;DHT22;70058;42.660;23.366;2023-07-16T12:48:33;36.10;27.30
80367;DHT22;70058;42.660;23.366;2023-07-16T12:50:59;36.20;27.70
80367;DHT22;70058;42.660;23.366;2023-07-16T12:53:25;36.30;26.50
80367;DHT22;70058;42.660;23.366;2023-07-16T12:55:52;36.10;25.90
80367;DHT22;70058;42.660;23.366;2023-07-16T12:58:18;36.30;26.40
80367;DHT22;70058;42.660;23.366;2023-07-16T13:00:44;36.30;26.50
80367;DHT22;70058;42.660;23.366;2023-07-16T13:03:09;36.50;25.90
80367;DHT22;70058;42.660;23.366;2023-07-16T13:05:42;36.40;26.20
80367;DHT22;70058;42.660;23.366;2023-07-16T13:08:09;35.80;26.70
80367;DHT22;70058;42.660;23.366;2023-07-16T13:10:35;36.00;26.60
80367;DHT22;70058;42.660;23.366;2023-07-16T13:13:01;36.20;26.50
80367;DHT22;70058;42.660;23.366;2023-07-16T13:15:29;36.10;26.00
80367;DHT22;70058;42.660;23.366;2023-07-16T13:17:55;36.20;26.40
80367;DHT22;70058;42.660;23.366;2023-07-16T13:20:21;36.30;26.30
80367;DHT22;70058;42.660;23.366;2023-07-16T13:22:47;36.30;26.80
80367;DHT22;70058;42.660;23.366;2023-07-16T13:25:13;36.40;25.90
80367;DHT22;70058;42.660;23.366;2023-07-16T13:27:39;36.20;25.90
80367;DHT22;70058;42.660;23.366;2023-07-16T13:30:06;36.10;26.30
80367;DHT22;70058;42.660;23.366;2023-07-16T13:32:31;36.20;26.20
80367;DHT22;70058;42.660;23.366;2023-07-16T13:34:57;36.20;25.70
80367;DHT22;70058;42.660;23.366;2023-07-16T13:37:23;36.40;25.30
80367;DHT22;70058;42.660;23.366;2023-07-16T13:39:48;36.40;25.40
80367;DHT22;70058;42.660;23.366;2023-07-16T13:42:14;36.40;24.80
80367;DHT22;70058;42.660;23.366;2023-07-16T13:44:40;36.40;24.60
80367;DHT22;70058;42.660;23.366;2023-07-16T13:47:05;36.20;24.90
80367;DHT22;70058;42.660;23.366;2023-07-16T13:49:31;36.20;25.10
80367;DHT22;70058;42.660;23.366;2023-07-16T13:51:57;36.30;25.50
80367;DHT22;70058;42.660;23.366;2023-07-16T13:54:23;36.20;25.90
80367;DHT22;70058;42.660;23.366;2023-07-16T13:56:49;36.20;25.90
80367;DHT22;70058;42.660;23.366;2023-07-16T13:59:14;36.20;26.10
80367;DHT22;70058;42.660;23.366;2023-07-16T14:01:40;35.90;26.30
80367;DHT22;70058;42.660;23.366;2023-07-16T14:04:06;35.90;26.40
80367;DHT22;70058;42.660;23.366;2023-07-16T14:06:32;35.90;26.40
80367;DHT22;70058;42.660;23.366;2023-07-16T14:08:58;35.80;26.20
80367;DHT22;70058;42.660;23.366;2023-07-16T14:11:24;35.80;26.10
80367;DHT22;70058;42.660;23.366;2023-07-16T14:13:50;35.80;25.80
80367;DHT22;70058;42.660;23.366;2023-07-16T14:16:17;35.70;26.30
80367;DHT22;70058;42.660;23.366;2023-07-16T14:18:43;35.70;26.40
80367;DHT22;70058;42.660;23.366;2023-07-16T14:21:09;35.70;26.30
80367;DHT22;70058;42.660;23.366;2023-07-16T14:23:34;35.70;26.00
80367;DHT22;70058;42.660;23.366;2023-07-16T14:26:00;35.60;26.10
80367;DHT22;70058;42.660;23.366;2023-07-16T14:28:28;35.20;26.90
80367;DHT22;70058;42.660;23.366;2023-07-16T14:30:54;35.30;26.60
80367;DHT22;70058;42.660;23.366;2023-07-16T14:33:20;35.20;26.70
80367;DHT22;70058;42.660;23.366;2023-07-16T14:35:46;35.10;26.70
80367;DHT22;70058;42.660;23.366;2023-07-16T14:38:12;35.20;26.90
80367;DHT22;70058;42.660;23.366;2023-07-16T14:40:38;35.40;26.50
80367;DHT22;70058;42.660;23.366;2023-07-16T14:43:04;35.30;26.30
80367;DHT22;70058;42.660;23.366;2023-07-16T14:45:31;35.30;26.70
80367;DHT22;70058;42.660;23.366;2023-07-16T14:47:58;35.30;26.50
80367;DHT22;70058;42.660;23.366;2023-07-16T14:50:24;34.90;26.80
80367;DHT22;70058;42.660;23.366;2023-07-16T14:52:49;34.80;27.00
80367;DHT22;70058;42.660;23.366;2023-07-16T14:55:15;34.70;27.30
80367;DHT22;70058;42.660;23.366;2023-07-16T14:57:41;34.90;27.40
80367;DHT22;70058;42.660;23.366;2023-07-16T15:00:07;35.00;27.50
80367;DHT22;70058;42.660;23.366;2023-07-16T15:02:37;35.20;27.50
80367;DHT22;70058;42.660;23.366;2023-07-16T15:05:04;35.10;27.70
80367;DHT22;70058;42.660;23.366;2023-07-16T15:07:32;35.30;27.70
80367;DHT22;70058;42.660;23.366;2023-07-16T15:10:00;35.40;27.20
80367;DHT22;70058;42.660;23.366;2023-07-16T15:12:26;35.30;26.60
80367;DHT22;70058;42.660;23.366;2023-07-16T15:14:52;34.90;26.90
80367;DHT22;70058;42.660;23.366;2023-07-16T15:17:18;34.80;27.50
80367;DHT22;70058;42.660;23.366;2023-07-16T15:19:43;34.90;27.50
80367;DHT22;70058;42.660;23.366;2023-07-16T15:22:09;35.10;27.10